Latest Weather Observations for Archerfield

IDQ60901

Issued at 3:11 pm EST Thursday 18 July 2024 (issued every 10 minutes, with the page automatically refreshed every 10 minutes)

About weather observations | Map of Brisbane area stations | Latest observations for Brisbane area | Other Formats
Station Details ID: 040211 Name: ARCHERFIELD AIRPORT Lat: -27.57 Lon: 153.01 Height: 12.5 m
Data from the previous 72 hours. | See also: Recent months at Archerfield
Date/Time
EST
Temp
°C
App
Temp
°C
Dew
Point
°C
Rel
Hum
%
Delta-T
°C
Wind Press
QNH
hPa
Press
MSL
hPa
Rain since
9am
mm
Dir  Spd
km/h
Gust
km/h
Spd
kts
Gust
kts
18/03:00pm 17.7 11.7 5.3 44 6.0 WSW 26 33 14 18 1012.4 1012.4 0.0
18/02:30pm 17.4 11.9 5.7 46 5.7 WSW 24 32 13 17 1012.4 1012.4 0.0
18/02:00pm 18.6 12.7 5.8 43 6.3 WSW 26 35 14 19 1012.3 1012.3 0.0
18/01:30pm 19.2 13.4 6.3 43 6.4 W 26 37 14 20 1012.3 1012.3 0.0
18/01:00pm 18.3 12.5 6.2 45 6.0 W 26 39 14 21 1012.5 1012.5 0.0
18/12:30pm 18.3 13.0 6.8 47 5.7 W 24 37 13 20 1012.9 1012.9 0.0
18/12:00pm 17.6 12.3 6.8 49 5.4 W 24 37 13 20 1013.4 1013.4 0.0
18/11:30am 17.2 12.3 6.7 50 5.2 W 22 32 12 17 1014.0 1014.0 0.0
18/11:00am 17.1 11.1 7.2 52 4.9 W 28 37 15 20 1014.5 1014.5 0.0
18/10:30am 16.2 10.9 6.9 54 4.6 WSW 24 37 13 20 1014.8 1014.8 0.0
18/10:00am 15.1 9.5 7.2 59 3.9 WSW 26 37 14 20 1015.1 1015.1 0.0
18/09:30am 14.7 9.2 7.5 62 3.6 W 26 35 14 19 1015.1 1015.1 0.0
18/09:00am 13.5 7.1 6.8 64 3.2 W 30 43 16 23 1015.1 1015.1 0.0
18/08:30am 12.7 6.7 7.0 68 2.7 W 28 39 15 21 1014.8 1014.8 0.0
18/08:00am 12.0 5.9 6.7 70 2.5 W 28 43 15 23 1014.4 1014.4 0.0
18/07:30am 11.2 5.8 6.5 73 2.2 W 24 33 13 18 1014.3 1014.3 0.0
18/07:00am 10.5 5.1 6.3 75 2.0 W 24 33 13 18 1014.0 1014.0 0.0
18/06:30am 10.3 4.8 5.9 74 2.0 W 24 32 13 17 1013.9 1013.9 0.0
18/06:00am 10.5 5.0 5.9 73 2.1 W 24 30 13 16 1013.7 1013.7 0.0
18/05:30am 10.5 5.0 5.9 73 2.1 W 24 35 13 19 1013.7 1013.7 0.0
18/05:00am 10.5 5.0 5.7 72 2.2 W 24 33 13 18 1013.5 1013.5 0.0
18/04:30am 10.5 4.9 5.5 71 2.3 W 24 35 13 19 1013.4 1013.4 0.0
18/04:00am 10.6 4.3 5.6 71 2.3 W 28 35 15 19 1013.4 1013.4 0.0
18/03:30am 10.7 4.4 5.7 71 2.3 W 28 44 15 24 1013.2 1013.2 0.0
18/03:00am 10.9 5.0 5.7 70 2.4 W 26 35 14 19 1013.2 1013.2 0.0
18/02:30am 10.8 5.2 5.3 69 2.5 W 24 35 13 19 1013.1 1013.1 0.0
18/02:00am 10.9 4.9 5.2 68 2.6 W 26 35 14 19 1013.2 1013.2 0.0
18/01:30am 10.5 5.3 5.3 70 2.4 W 22 37 12 20 1013.3 1013.3 0.0
18/01:00am 10.6 5.9 5.2 69 2.5 WNW 19 30 10 16 1013.6 1013.6 0.0
18/12:30am 10.1 5.8 5.3 72 2.2 WNW 17 22 9 12 1013.7 1013.7 0.0
18/12:00am 10.2 6.7 5.4 72 2.2 W 13 20 7 11 1013.7 1013.7 0.0
 
Date/Time
EST
Temp
°C
App
Temp
°C
Dew
Point
°C
Rel
Hum
%
Delta-T
°C
Wind Press
QNH
hPa
Press
MSL
hPa
Rain since
9am
mm
Dir  Spd
km/h
Gust
km/h
Spd
kts
Gust
kts
17/11:30pm 10.4 5.6 5.6 72 2.2 W 20 30 11 16 1013.7 1013.7 0.0
17/11:00pm 10.4 5.5 5.2 70 2.4 W 20 30 11 16 1014.1 1014.1 0.0
17/10:30pm 10.3 6.4 5.3 71 2.3 W 15 24 8 13 1014.3 1014.3 0.0
17/10:00pm 10.1 4.8 5.1 71 2.3 W 22 35 12 19 1014.2 1014.2 0.0
17/09:30pm 10.2 5.3 5.0 70 2.3 WNW 20 28 11 15 1014.2 1014.2 0.0
17/09:00pm 10.2 5.2 4.8 69 2.4 W 20 28 11 15 1014.2 1014.2 0.0
17/08:30pm 10.8 5.1 4.9 67 2.7 W 24 35 13 19 1013.8 1013.8 0.0
17/08:00pm 11.4 6.6 4.8 64 3.0 W 19 28 10 15 1013.8 1013.8 0.0
17/07:30pm 11.6 4.8 5.0 64 3.0 W 30 35 16 19 1013.1 1013.1 0.0
17/07:00pm 11.8 5.3 4.5 61 3.3 W 28 35 15 19 1012.8 1012.8 0.0
17/06:30pm 12.3 5.4 4.8 60 3.4 W 30 37 16 20 1012.5 1012.5 0.0
17/06:00pm 12.5 5.0 4.7 59 3.6 W 33 44 18 24 1011.6 1011.6 0.0
17/05:30pm 12.5 6.7 4.5 58 3.6 W 24 33 13 18 1011.6 1011.6 0.0
17/05:00pm 12.7 6.5 4.4 57 3.8 W 26 39 14 21 1011.4 1011.4 0.0
17/04:30pm 13.3 4.7 4.5 55 4.0 W 39 54 21 29 1010.9 1010.9 0.0
17/04:08pm 13.9 7.3 4.2 52 4.4 W 28 46 15 25 1010.6 1010.6 0.0
17/04:00pm 14.4 7.8 4.4 51 4.6 W 28 43 15 23 1010.6 1010.6 0.0
17/03:30pm 15.0 7.7 4.7 50 4.8 W 32 41 17 22 1010.4 1010.4 0.0
17/03:09pm 15.4 8.5 4.5 48 5.1 W 30 52 16 28 1010.3 1010.3 0.0
17/03:00pm 15.6 8.2 4.9 49 5.0 WSW 33 46 18 25 1010.2 1010.2 0.0
17/02:44pm 15.8 8.3 4.5 47 5.3 W 33 52 18 28 1010.1 1010.1 0.0
17/02:30pm 15.7 6.7 4.7 48 5.2 W 41 54 22 29 1009.9 1009.9 0.0
17/02:00pm 16.0 7.8 4.7 47 5.3 W 37 50 20 27 1009.6 1009.5 0.0
17/01:48pm 16.4 9.2 4.8 46 5.5 W 32 50 17 27 1009.7 1009.7 0.0
17/01:30pm 16.5 8.3 4.9 46 5.5 W 37 52 20 28 1009.6 1009.5 0.0
17/01:00pm 16.1 7.5 4.8 47 5.3 W 39 50 21 27 1009.8 1009.8 0.0
17/12:30pm 16.1 8.0 5.1 48 5.2 W 37 50 20 27 1010.2 1010.2 0.0
17/12:03pm 15.7 7.8 4.4 47 5.3 W 35 54 19 29 1010.6 1010.6 0.0
17/12:00pm 16.0 8.2 5.0 48 5.2 W 35 46 19 25 1010.7 1010.7 0.0
17/11:45am 15.6 7.9 5.2 50 4.9 W 35 54 19 29 1011.0 1011.0 0.0
17/11:30am 15.2 7.9 4.6 49 4.9 W 32 44 17 24 1011.5 1011.5 0.0
17/11:00am 15.2 8.4 5.1 51 4.8 W 30 44 16 24 1012.1 1012.1 0.0
17/10:30am 13.8 6.4 4.1 52 4.4 W 32 41 17 22 1012.8 1012.8 0.0
17/10:00am 13.4 5.8 3.8 52 4.3 W 33 50 18 27 1013.1 1013.1 0.0
17/09:30am 12.7 5.8 4.4 57 3.8 W 30 39 16 21 1013.1 1013.1 0.0
17/09:00am 12.1 5.1 3.9 57 3.7 W 30 44 16 24 1013.1 1013.1 0.0
17/08:30am 11.4 5.5 3.7 59 3.4 W 24 35 13 19 1013.2 1013.2 0.0
17/08:00am 10.7 5.5 3.5 61 3.2 W 20 30 11 16 1013.2 1013.2 0.0
17/07:30am 9.8 5.1 3.1 63 2.9 W 17 26 9 14 1013.0 1013.0 0.0
17/07:00am 8.7 4.3 2.9 67 2.5 W 15 20 8 11 1012.6 1012.6 0.0
17/06:30am 8.2 4.1 2.2 66 2.5 WSW 13 19 7 10 1012.4 1012.4 0.0
17/06:00am 8.6 4.1 2.4 65 2.6 W 15 20 8 11 1011.9 1011.9 0.0
17/05:30am 8.3 4.1 1.9 64 2.6 W 13 17 7 9 1011.5 1011.5 0.0
17/05:00am 9.4 3.9 2.0 60 3.1 W 20 33 11 18 1011.0 1011.0 0.0
17/04:30am 9.9 3.7 2.0 58 3.3 WNW 24 33 13 18 1010.6 1010.6 0.0
17/04:00am 9.0 4.7 1.2 58 3.2 WNW 13 20 7 11 1010.5 1010.5 0.0
17/03:30am 8.2 5.3 1.4 62 2.8 W 6 11 3 6 1010.7 1010.7 0.0
17/03:00am 9.4 5.5 1.3 57 3.3 WNW 11 17 6 9 1010.6 1010.6 0.0
17/02:30am 8.7 4.4 0.9 58 3.2 WNW 13 17 7 9 1010.6 1010.6 0.0
17/02:00am 9.2 6.5 0.6 55 3.5 NNW 4 7 2 4 1010.7 1010.7 0.0
17/01:30am 7.9 4.3 0.9 61 2.8 NNE 9 13 5 7 1011.0 1011.0 0.0
17/01:00am 9.7 6.5 0.6 53 3.7 NNW 7 15 4 8 1011.1 1011.1 0.0
17/12:30am 10.1 6.6 1.0 53 3.7 WNW 9 17 5 9 1011.0 1011.0 0.0
17/12:00am 10.8 5.4 1.4 52 3.9 W 19 24 10 13 1011.0 1011.0 0.0
 
Date/Time
EST
Temp
°C
App
Temp
°C
Dew
Point
°C
Rel
Hum
%
Delta-T
°C
Wind Press
QNH
hPa
Press
MSL
hPa
Rain since
9am
mm
Dir  Spd
km/h
Gust
km/h
Spd
kts
Gust
kts
16/11:30pm 10.9 6.8 2.0 54 3.8 WSW 13 20 7 11 1011.4 1011.4 0.0
16/11:00pm 10.7 6.2 2.0 55 3.7 W 15 24 8 13 1011.5 1011.5 0.0
16/10:30pm 11.0 6.5 2.3 55 3.7 W 15 19 8 10 1011.9 1011.9 0.0
16/10:00pm 11.8 7.0 2.5 53 4.0 WSW 17 22 9 12 1011.8 1011.8 0.0
16/09:30pm 11.6 8.3 2.4 53 4.0 WSW 9 15 5 8 1012.0 1012.0 0.0
16/09:00pm 12.1 7.6 2.3 51 4.2 W 15 20 8 11 1011.6 1011.6 0.0
16/08:30pm 12.4 8.3 2.0 49 4.5 WNW 13 22 7 12 1011.7 1011.7 0.0
16/08:00pm 12.0 7.5 2.2 51 4.2 WNW 15 22 8 12 1011.3 1011.3 0.0
16/07:30pm 12.0 7.8 1.9 50 4.3 WNW 13 20 7 11 1011.0 1011.0 0.0
16/07:00pm 12.6 8.0 1.6 47 4.7 WNW 15 20 8 11 1010.7 1010.7 0.0
16/06:30pm 13.4 9.5 1.4 44 5.1 W 11 20 6 11 1010.4 1010.4 0.0
16/06:00pm 14.0 9.7 1.3 42 5.5 W 13 19 7 10 1010.0 1010.0 0.0
16/05:30pm 15.1 8.0 1.3 39 6.0 W 28 39 15 21 1009.1 1009.0 0.0
16/05:00pm 15.8 9.8 0.8 36 6.5 WSW 22 35 12 19 1009.1 1009.0 0.0
16/04:30pm 16.7 7.7 0.4 33 7.1 W 37 50 20 27 1008.5 1008.4 0.0
16/04:00pm 17.1 9.0 0.7 33 7.2 W 33 52 18 28 1008.4 1008.3 0.0
16/03:59pm 17.1 9.0 0.7 33 7.2 W 33 52 18 28 1008.4 1008.3 0.0
16/03:30pm 17.2 9.1 1.2 34 7.1 W 33 44 18 24 1008.2 1008.1 0.0
16/03:00pm 17.5 7.6 1.5 34 7.2 W 43 57 23 31 1007.9 1007.8 0.0
16/02:48pm 17.3 8.9 1.3 34 7.1 W 35 54 19 29 1008.0 1007.9 0.0
16/02:30pm 18.0 7.8 1.1 32 7.5 W 44 59 24 32 1008.0 1007.9 0.0
16/02:00pm 17.9 6.9 0.6 31 7.6 W 48 70 26 38 1007.9 1007.8 0.0
16/01:30pm 18.3 6.9 0.4 30 7.9 W 50 69 27 37 1007.8 1007.7 0.0
16/01:00pm 17.7 6.7 0.8 32 7.5 W 48 72 26 39 1008.0 1007.9 0.0
16/12:30pm 17.7 7.8 1.7 34 7.2 W 43 61 23 33 1008.6 1008.5 0.0
16/12:00pm 17.8 8.8 2.5 36 7.0 WSW 39 57 21 31 1009.3 1009.2 0.0
16/11:30am 17.2 9.1 3.1 39 6.5 W 35 63 19 34 1009.7 1009.7 0.0
16/11:00am 16.1 8.1 3.9 44 5.7 W 35 56 19 30 1010.7 1010.7 0.0
16/10:51am 16.1 8.3 5.1 48 5.2 W 35 54 19 29 1010.8 1010.8 0.0
16/10:30am 14.9 6.2 4.0 48 5.0 W 39 54 21 29 1011.2 1011.2 0.0
16/10:21am 15.1 7.2 4.5 49 4.9 W 35 54 19 29 1011.3 1011.3 0.0
16/10:00am 14.5 7.2 4.5 51 4.6 W 32 48 17 26 1011.5 1011.5 0.0
16/09:59am 14.9 8.1 4.9 51 4.7 W 30 48 16 26 1011.5 1011.5 0.0
16/09:30am 13.3 6.0 4.7 56 4.0 W 32 46 17 25 1011.8 1011.8 0.0
16/09:00am 12.3 6.6 5.0 61 3.4 W 24 39 13 21 1011.9 1011.9 0.0
16/08:30am 11.4 5.5 5.7 68 2.6 W 26 37 14 20 1012.0 1012.0 0.0
16/08:00am 10.5 5.7 5.5 71 2.3 W 20 30 11 16 1011.9 1011.9 0.0
16/07:30am 9.1 5.5 5.1 76 1.8 WSW 13 20 7 11 1011.8 1011.8 0.0
16/07:00am 8.2 4.1 4.4 77 1.7 WSW 15 19 8 10 1011.5 1011.5 0.0
16/06:30am 7.6 3.1 4.2 79 1.5 W 17 20 9 11 1011.3 1011.3 0.0
16/06:00am 7.9 3.1 4.5 79 1.5 W 19 24 10 13 1011.1 1011.1 0.0
16/05:30am 6.7 2.9 4.0 83 1.2 W 13 19 7 10 1010.9 1010.9 0.0
16/05:00am 5.9 2.0 3.6 85 1.0 WSW 13 17 7 9 1010.8 1010.8 0.0
16/04:30am 5.7 4.3 3.4 85 1.0 CALM 0 0 0 0 1010.6 1010.6 0.0
16/04:00am 4.5 3.0 3.0 90 0.6 CALM 0 0 0 0 1010.6 1010.6 0.0
16/03:30am 4.8 3.3 3.1 89 0.7 CALM 0 0 0 0 1010.8 1010.8 0.0
16/03:00am 5.1 1.4 2.6 84 1.0 SW 11 13 6 7 1010.8 1010.8 0.0
16/02:30am 5.4 3.5 2.9 84 1.0 SW 2 9 1 5 1010.9 1010.9 0.0
16/02:00am 6.4 4.9 3.0 79 1.4 CALM 0 0 0 0 1011.1 1011.1 0.0
16/01:30am 6.0 4.2 3.5 84 1.0 WSW 2 6 1 3 1011.2 1011.2 0.0
16/01:00am 7.7 5.2 3.9 77 1.6 WSW 6 7 3 4 1011.3 1011.3 0.0
16/12:30am 7.8 6.4 3.7 75 1.8 CALM 0 0 0 0 1011.4 1011.4 0.0
16/12:00am 8.2 4.4 3.9 74 1.9 W 13 15 7 8 1011.5 1011.5 0.0
 
Date/Time
EST
Temp
°C
App
Temp
°C
Dew
Point
°C
Rel
Hum
%
Delta-T
°C
Wind Press
QNH
hPa
Press
MSL
hPa
Rain since
9am
mm
Dir  Spd
km/h
Gust
km/h
Spd
kts
Gust
kts
15/11:30pm 8.9 5.1 4.1 72 2.1 W 13 17 7 9 1011.6 1011.6 0.0
15/11:00pm 9.0 5.5 3.6 69 2.3 W 11 13 6 7 1011.6 1011.6 0.0
15/10:30pm 9.1 5.6 3.7 69 2.3 W 11 13 6 7 1011.8 1011.8 0.0
15/10:00pm 8.8 5.4 4.0 72 2.1 W 11 13 6 7 1011.8 1011.8 0.0
15/09:30pm 10.6 7.8 3.4 61 3.1 W 7 9 4 5 1011.9 1011.9 0.0
15/09:00pm 9.3 6.7 3.1 65 2.7 WNW 6 7 3 4 1011.8 1011.8 0.0
15/08:30pm 11.0 7.5 3.3 59 3.4 WSW 11 17 6 9 1011.7 1011.7 0.0
15/08:00pm 11.1 7.2 3.6 60 3.3 WSW 13 15 7 8 1011.4 1011.4 0.0
15/07:30pm 10.2 6.7 3.5 63 2.9 W 11 17 6 9 1011.2 1011.2 0.0
15/07:00pm 11.7 8.5 3.2 56 3.7 WNW 9 13 5 7 1011.1 1011.1 0.0
15/06:30pm 13.1 10.4 2.6 49 4.6 WNW 6 7 3 4 1010.8 1010.8 0.0
15/06:00pm 13.0 10.1 2.6 49 4.6 W 7 9 4 5 1010.4 1010.4 0.0
15/05:30pm 13.8 10.6 3.0 48 4.8 W 9 13 5 7 1010.0 1010.0 0.0
15/05:00pm 14.7 10.8 3.2 46 5.2 W 13 19 7 10 1009.7 1009.7 0.0
15/04:30pm 16.6 11.5 3.0 40 6.2 WSW 19 30 10 16 1009.5 1009.4 0.0
15/04:00pm 17.3 10.8 2.5 37 6.7 W 26 37 14 20 1009.3 1009.2 0.0
15/03:30pm 18.2 12.1 2.9 36 7.1 WSW 24 35 13 19 1009.1 1009.0 0.0

Latest Capital City Observations: Canberra | Sydney | Melbourne | Brisbane | Adelaide | Perth | Hobart | Darwin

Other formats

Comma delimited format used in spreadsheet applications
http://www.bom.gov.au/fwo/IDQ60901/IDQ60901.94575.axf

JavaScript Object Notation format (JSON) in row-major order
http://www.bom.gov.au/fwo/IDQ60901/IDQ60901.94575.json

Data quality

Most of these data are generated automatically and are frequently updated. Quality checks on data are not normally performed. It is possible for incorrect values to appear. Refer to information at About Latest Weather Observations and please check the disclaimer before using these data.